sensor_id;sensor_type;location;lat;lon;timestamp;pressure;altitude;pressure_sealevel;temperature;humidity
60646;BME280;46462;32.608;-117.032;2023-03-03T00:00:24;99690.10;;;20.11;37.14
60646;BME280;46462;32.608;-117.032;2023-03-03T00:02:57;99692.38;;;20.06;37.26
60646;BME280;46462;32.608;-117.032;2023-03-03T00:05:26;99693.28;;;19.80;37.71
60646;BME280;46462;32.608;-117.032;2023-03-03T00:07:57;99694.68;;;19.85;37.35
60646;BME280;46462;32.608;-117.032;2023-03-03T00:10:28;99700.99;;;19.74;37.67
60646;BME280;46462;32.608;-117.032;2023-03-03T00:12:58;99697.46;;;19.73;37.66
60646;BME280;46462;32.608;-117.032;2023-03-03T00:15:29;99699.04;;;19.65;37.95
60646;BME280;46462;32.608;-117.032;2023-03-03T00:18:00;99697.27;;;19.69;37.82
60646;BME280;46462;32.608;-117.032;2023-03-03T00:20:36;99698.85;;;19.49;38.31
60646;BME280;46462;32.608;-117.032;2023-03-03T00:23:16;99705.19;;;19.21;38.87
60646;BME280;46462;32.608;-117.032;2023-03-03T00:25:33;99703.71;;;19.50;38.99
60646;BME280;46462;32.608;-117.032;2023-03-03T00:28:07;99705.54;;;21.41;35.44
60646;BME280;46462;32.608;-117.032;2023-03-03T00:30:34;99705.69;;;21.21;35.42
60646;BME280;46462;32.608;-117.032;2023-03-03T00:33:13;99690.88;;;22.00;34.11
60646;BME280;46462;32.608;-117.032;2023-03-03T00:35:36;99693.93;;;22.60;32.91
60646;BME280;46462;32.608;-117.032;2023-03-03T00:38:13;99694.19;;;23.05;32.20
60646;BME280;46462;32.608;-117.032;2023-03-03T00:40:38;99699.61;;;23.52;31.86
60646;BME280;46462;32.608;-117.032;2023-03-03T00:43:17;99703.10;;;23.87;31.31
60646;BME280;46462;32.608;-117.032;2023-03-03T00:45:43;99706.85;;;24.00;31.09
60646;BME280;46462;32.608;-117.032;2023-03-03T00:48:19;99708.35;;;24.09;31.06
60646;BME280;46462;32.608;-117.032;2023-03-03T00:50:43;99709.99;;;24.13;31.06
60646;BME280;46462;32.608;-117.032;2023-03-03T00:53:13;99712.33;;;24.05;31.26
60646;BME280;46462;32.608;-117.032;2023-03-03T00:55:42;99721.42;;;24.08;31.21
60646;BME280;46462;32.608;-117.032;2023-03-03T00:58:13;99727.30;;;24.11;31.14
60646;BME280;46462;32.608;-117.032;2023-03-03T01:00:44;99725.55;;;24.10;31.21
60646;BME280;46462;32.608;-117.032;2023-03-03T01:03:16;99727.90;;;24.10;31.20
60646;BME280;46462;32.608;-117.032;2023-03-03T01:05:45;99733.80;;;24.15;31.24
60646;BME280;46462;32.608;-117.032;2023-03-03T01:08:16;99731.91;;;24.19;31.13
60646;BME280;46462;32.608;-117.032;2023-03-03T01:10:48;99731.41;;;24.33;30.85
60646;BME280;46462;32.608;-117.032;2023-03-03T01:13:17;99732.97;;;24.31;30.70
60646;BME280;46462;32.608;-117.032;2023-03-03T01:15:48;99732.29;;;23.97;31.30
60646;BME280;46462;32.608;-117.032;2023-03-03T01:18:19;99731.95;;;23.95;31.40
60646;BME280;46462;32.608;-117.032;2023-03-03T01:20:49;99736.28;;;24.02;31.30
60646;BME280;46462;32.608;-117.032;2023-03-03T01:23:20;99737.10;;;24.15;31.15
60646;BME280;46462;32.608;-117.032;2023-03-03T01:25:51;99739.74;;;24.30;31.01
60646;BME280;46462;32.608;-117.032;2023-03-03T01:28:21;99741.75;;;24.35;30.84
60646;BME280;46462;32.608;-117.032;2023-03-03T01:30:52;99745.52;;;24.38;30.84
60646;BME280;46462;32.608;-117.032;2023-03-03T01:33:23;99744.83;;;24.40;30.75
60646;BME280;46462;32.608;-117.032;2023-03-03T01:35:54;99747.70;;;24.42;30.61
60646;BME280;46462;32.608;-117.032;2023-03-03T01:38:25;99744.09;;;24.43;30.68
60646;BME280;46462;32.608;-117.032;2023-03-03T01:40:57;99743.02;;;24.44;30.73
60646;BME280;46462;32.608;-117.032;2023-03-03T01:43:27;99746.45;;;24.41;30.70
60646;BME280;46462;32.608;-117.032;2023-03-03T01:48:31;99749.51;;;24.39;30.87
60646;BME280;46462;32.608;-117.032;2023-03-03T01:51:01;99758.95;;;24.38;30.76
60646;BME280;46462;32.608;-117.032;2023-03-03T01:53:33;99763.16;;;24.38;30.83
60646;BME280;46462;32.608;-117.032;2023-03-03T01:56:00;99763.03;;;24.37;31.02
60646;BME280;46462;32.608;-117.032;2023-03-03T01:58:34;99761.49;;;24.34;31.05
60646;BME280;46462;32.608;-117.032;2023-03-03T02:01:04;99757.55;;;24.33;31.13
60646;BME280;46462;32.608;-117.032;2023-03-03T02:03:32;99757.22;;;24.31;31.13
60646;BME280;46462;32.608;-117.032;2023-03-03T02:06:05;99757.49;;;24.27;31.29
60646;BME280;46462;32.608;-117.032;2023-03-03T02:08:40;99753.56;;;24.25;31.33
60646;BME280;46462;32.608;-117.032;2023-03-03T02:11:05;99756.26;;;24.28;31.28
60646;BME280;46462;32.608;-117.032;2023-03-03T02:13:35;99756.91;;;24.25;31.40
60646;BME280;46462;32.608;-117.032;2023-03-03T02:16:06;99763.41;;;24.20;31.57
60646;BME280;46462;32.608;-117.032;2023-03-03T02:18:37;99765.35;;;24.18;31.43
60646;BME280;46462;32.608;-117.032;2023-03-03T02:21:10;99769.14;;;24.17;31.42
60646;BME280;46462;32.608;-117.032;2023-03-03T02:23:44;99775.10;;;24.15;31.40
60646;BME280;46462;32.608;-117.032;2023-03-03T02:26:12;99776.12;;;24.11;31.38
60646;BME280;46462;32.608;-117.032;2023-03-03T02:28:40;99774.05;;;24.13;31.28
60646;BME280;46462;32.608;-117.032;2023-03-03T02:31:13;99771.32;;;24.10;31.29
60646;BME280;46462;32.608;-117.032;2023-03-03T02:33:43;99772.14;;;24.09;31.33
60646;BME280;46462;32.608;-117.032;2023-03-03T02:36:14;99773.93;;;24.05;31.46
60646;BME280;46462;32.608;-117.032;2023-03-03T02:38:48;99776.57;;;24.02;31.57
60646;BME280;46462;32.608;-117.032;2023-03-03T02:41:19;99781.65;;;23.99;31.68
60646;BME280;46462;32.608;-117.032;2023-03-03T02:43:50;99782.44;;;23.96;31.65
60646;BME280;46462;32.608;-117.032;2023-03-03T02:46:15;99775.57;;;23.93;31.72
60646;BME280;46462;32.608;-117.032;2023-03-03T02:48:46;99772.00;;;23.92;31.73
60646;BME280;46462;32.608;-117.032;2023-03-03T02:51:17;99770.15;;;23.90;31.77
60646;BME280;46462;32.608;-117.032;2023-03-03T02:53:47;99769.75;;;23.85;31.92
60646;BME280;46462;32.608;-117.032;2023-03-03T02:56:18;99772.50;;;23.84;31.91
60646;BME280;46462;32.608;-117.032;2023-03-03T02:58:49;99779.07;;;23.84;31.86
60646;BME280;46462;32.608;-117.032;2023-03-03T03:01:20;99779.13;;;23.82;31.91
60646;BME280;46462;32.608;-117.032;2023-03-03T03:03:51;99778.79;;;23.76;32.00
60646;BME280;46462;32.608;-117.032;2023-03-03T03:06:21;99779.00;;;23.72;32.05
60646;BME280;46462;32.608;-117.032;2023-03-03T03:08:52;99781.07;;;23.66;32.21
60646;BME280;46462;32.608;-117.032;2023-03-03T03:11:23;99781.95;;;23.63;32.27
60646;BME280;46462;32.608;-117.032;2023-03-03T03:13:54;99785.13;;;23.64;32.20
60646;BME280;46462;32.608;-117.032;2023-03-03T03:16:25;99785.21;;;23.63;32.25
60646;BME280;46462;32.608;-117.032;2023-03-03T03:18:56;99782.86;;;23.57;32.34
60646;BME280;46462;32.608;-117.032;2023-03-03T03:21:27;99778.69;;;23.56;32.40
60646;BME280;46462;32.608;-117.032;2023-03-03T03:23:57;99772.89;;;23.48;32.58
60646;BME280;46462;32.608;-117.032;2023-03-03T03:26:28;99771.59;;;23.40;32.74
60646;BME280;46462;32.608;-117.032;2023-03-03T03:28:59;99771.55;;;23.46;32.64
60646;BME280;46462;32.608;-117.032;2023-03-03T03:31:29;99772.80;;;23.42;32.76
60646;BME280;46462;32.608;-117.032;2023-03-03T03:34:00;99779.24;;;23.43;32.86
60646;BME280;46462;32.608;-117.032;2023-03-03T03:36:31;99787.19;;;23.38;32.92
60646;BME280;46462;32.608;-117.032;2023-03-03T03:39:02;99784.84;;;23.33;33.08
60646;BME280;46462;32.608;-117.032;2023-03-03T03:41:33;99796.52;;;23.34;32.98
60646;BME280;46462;32.608;-117.032;2023-03-03T03:44:04;99802.37;;;23.26;33.36
60646;BME280;46462;32.608;-117.032;2023-03-03T03:46:34;99797.25;;;23.18;33.56
60646;BME280;46462;32.608;-117.032;2023-03-03T03:49:05;99798.43;;;23.19;33.50
60646;BME280;46462;32.608;-117.032;2023-03-03T03:51:36;99799.63;;;23.18;33.70
60646;BME280;46462;32.608;-117.032;2023-03-03T03:54:07;99797.54;;;23.22;33.61
60646;BME280;46462;32.608;-117.032;2023-03-03T03:56:37;99800.70;;;23.22;33.61
60646;BME280;46462;32.608;-117.032;2023-03-03T03:59:08;99799.54;;;23.15;33.73
60646;BME280;46462;32.608;-117.032;2023-03-03T04:01:39;99795.87;;;23.16;33.65
60646;BME280;46462;32.608;-117.032;2023-03-03T04:04:09;99797.12;;;23.10;33.76
60646;BME280;46462;32.608;-117.032;2023-03-03T04:06:40;99800.78;;;23.06;33.94
60646;BME280;46462;32.608;-117.032;2023-03-03T04:09:11;99804.54;;;22.92;34.23
60646;BME280;46462;32.608;-117.032;2023-03-03T04:11:42;99802.38;;;22.90;34.30
60646;BME280;46462;32.608;-117.032;2023-03-03T04:14:13;99805.35;;;22.81;34.31
60646;BME280;46462;32.608;-117.032;2023-03-03T04:16:44;99812.31;;;22.77;34.52
60646;BME280;46462;32.608;-117.032;2023-03-03T04:19:14;99812.52;;;22.70;34.67
60646;BME280;46462;32.608;-117.032;2023-03-03T04:21:45;99814.24;;;22.72;34.65
60646;BME280;46462;32.608;-117.032;2023-03-03T04:24:16;99823.09;;;22.66;34.87
60646;BME280;46462;32.608;-117.032;2023-03-03T04:26:47;99826.49;;;22.63;34.84
60646;BME280;46462;32.608;-117.032;2023-03-03T04:29:17;99827.41;;;22.59;34.91
60646;BME280;46462;32.608;-117.032;2023-03-03T04:31:48;99827.47;;;22.56;34.87
60646;BME280;46462;32.608;-117.032;2023-03-03T04:34:19;99830.94;;;22.43;35.10
60646;BME280;46462;32.608;-117.032;2023-03-03T04:36:49;99830.78;;;22.48;35.02
60646;BME280;46462;32.608;-117.032;2023-03-03T04:39:20;99830.82;;;22.46;34.98
60646;BME280;46462;32.608;-117.032;2023-03-03T04:41:51;99828.77;;;22.47;35.10
60646;BME280;46462;32.608;-117.032;2023-03-03T04:44:22;99826.97;;;22.40;35.06
60646;BME280;46462;32.608;-117.032;2023-03-03T04:46:53;99831.80;;;22.43;35.03
60646;BME280;46462;32.608;-117.032;2023-03-03T04:49:23;99835.02;;;22.41;35.03
60646;BME280;46462;32.608;-117.032;2023-03-03T04:51:54;99834.18;;;22.40;34.95
60646;BME280;46462;32.608;-117.032;2023-03-03T04:54:25;99840.85;;;22.32;35.11
60646;BME280;46462;32.608;-117.032;2023-03-03T04:56:56;99843.84;;;22.22;35.32
60646;BME280;46462;32.608;-117.032;2023-03-03T04:59:27;99839.14;;;22.23;35.35
60646;BME280;46462;32.608;-117.032;2023-03-03T05:01:57;99837.34;;;22.22;35.18
60646;BME280;46462;32.608;-117.032;2023-03-03T05:04:28;99831.78;;;22.26;35.23
60646;BME280;46462;32.608;-117.032;2023-03-03T05:06:59;99833.10;;;22.24;35.28
60646;BME280;46462;32.608;-117.032;2023-03-03T05:09:30;99837.70;;;22.16;35.43
60646;BME280;46462;32.608;-117.032;2023-03-03T05:12:01;99835.90;;;22.15;35.51
60646;BME280;46462;32.608;-117.032;2023-03-03T05:14:31;99836.23;;;22.11;35.44
60646;BME280;46462;32.608;-117.032;2023-03-03T05:17:02;99838.48;;;22.12;35.42
60646;BME280;46462;32.608;-117.032;2023-03-03T05:19:33;99834.89;;;21.97;35.51
60646;BME280;46462;32.608;-117.032;2023-03-03T05:22:03;99836.38;;;21.97;35.56
60646;BME280;46462;32.608;-117.032;2023-03-03T05:24:34;99838.79;;;21.97;35.53
60646;BME280;46462;32.608;-117.032;2023-03-03T05:27:05;99841.93;;;21.95;35.63
60646;BME280;46462;32.608;-117.032;2023-03-03T05:29:36;99841.00;;;21.93;35.46
60646;BME280;46462;32.608;-117.032;2023-03-03T05:32:07;99840.57;;;21.94;35.45
60646;BME280;46462;32.608;-117.032;2023-03-03T05:34:38;99841.27;;;21.91;35.59
60646;BME280;46462;32.608;-117.032;2023-03-03T05:37:08;99844.69;;;21.83;35.59
60646;BME280;46462;32.608;-117.032;2023-03-03T05:39:39;99843.44;;;21.81;35.61
60646;BME280;46462;32.608;-117.032;2023-03-03T05:42:12;99839.17;;;21.81;35.65
60646;BME280;46462;32.608;-117.032;2023-03-03T05:44:41;99840.47;;;21.80;35.67
60646;BME280;46462;32.608;-117.032;2023-03-03T05:47:12;99841.60;;;21.86;35.56
60646;BME280;46462;32.608;-117.032;2023-03-03T05:49:43;99844.97;;;21.81;35.60
60646;BME280;46462;32.608;-117.032;2023-03-03T05:52:13;99844.71;;;21.83;35.54
60646;BME280;46462;32.608;-117.032;2023-03-03T05:54:44;99845.95;;;21.83;35.46
60646;BME280;46462;32.608;-117.032;2023-03-03T05:57:15;99844.12;;;21.77;35.54
60646;BME280;46462;32.608;-117.032;2023-03-03T05:59:46;99840.60;;;21.75;35.59
60646;BME280;46462;32.608;-117.032;2023-03-03T06:02:17;99839.37;;;21.83;35.40
60646;BME280;46462;32.608;-117.032;2023-03-03T06:04:47;99839.54;;;21.73;35.58
60646;BME280;46462;32.608;-117.032;2023-03-03T06:07:18;99841.50;;;21.67;35.77
60646;BME280;46462;32.608;-117.032;2023-03-03T06:09:49;99843.49;;;21.69;35.61
60646;BME280;46462;32.608;-117.032;2023-03-03T06:12:20;99842.91;;;21.66;35.63
60646;BME280;46462;32.608;-117.032;2023-03-03T06:14:51;99837.99;;;21.64;35.73
60646;BME280;46462;32.608;-117.032;2023-03-03T06:17:22;99830.73;;;21.64;35.69
60646;BME280;46462;32.608;-117.032;2023-03-03T06:19:53;99828.84;;;21.69;35.56
60646;BME280;46462;32.608;-117.032;2023-03-03T06:22:23;99824.97;;;21.50;35.71
60646;BME280;46462;32.608;-117.032;2023-03-03T06:24:54;99823.11;;;21.58;35.71
60646;BME280;46462;32.608;-117.032;2023-03-03T06:27:26;99819.38;;;21.64;35.52
60646;BME280;46462;32.608;-117.032;2023-03-03T06:29:56;99814.72;;;21.58;35.56
60646;BME280;46462;32.608;-117.032;2023-03-03T06:32:27;99811.82;;;21.52;35.65
60646;BME280;46462;32.608;-117.032;2023-03-03T06:34:58;99812.08;;;21.50;35.78
60646;BME280;46462;32.608;-117.032;2023-03-03T06:37:28;99807.57;;;21.54;35.73
60646;BME280;46462;32.608;-117.032;2023-03-03T06:39:59;99798.24;;;21.45;35.86
60646;BME280;46462;32.608;-117.032;2023-03-03T06:42:30;99794.71;;;21.45;35.83
60646;BME280;46462;32.608;-117.032;2023-03-03T06:45:01;99796.80;;;21.42;35.85
60646;BME280;46462;32.608;-117.032;2023-03-03T06:47:32;99797.77;;;21.40;35.79
60646;BME280;46462;32.608;-117.032;2023-03-03T06:50:09;99788.39;;;21.36;35.76
60646;BME280;46462;32.608;-117.032;2023-03-03T06:52:37;99789.48;;;21.37;35.70
60646;BME280;46462;32.608;-117.032;2023-03-03T06:55:21;99791.46;;;21.29;35.84
60646;BME280;46462;32.608;-117.032;2023-03-03T06:57:38;99788.76;;;21.35;35.68
60646;BME280;46462;32.608;-117.032;2023-03-03T07:00:14;99788.75;;;21.25;35.87
60646;BME280;46462;32.608;-117.032;2023-03-03T07:02:38;99784.87;;;21.30;35.64
60646;BME280;46462;32.608;-117.032;2023-03-03T07:05:13;99780.43;;;21.16;35.95
60646;BME280;46462;32.608;-117.032;2023-03-03T07:07:40;99776.85;;;21.25;36.00
60646;BME280;46462;32.608;-117.032;2023-03-03T07:10:21;99769.46;;;21.22;35.83
60646;BME280;46462;32.608;-117.032;2023-03-03T07:12:42;99767.22;;;21.21;35.83
60646;BME280;46462;32.608;-117.032;2023-03-03T07:15:15;99769.37;;;21.19;35.85
60646;BME280;46462;32.608;-117.032;2023-03-03T07:17:46;99765.87;;;21.09;36.10
60646;BME280;46462;32.608;-117.032;2023-03-03T07:20:19;99758.80;;;21.12;35.90
60646;BME280;46462;32.608;-117.032;2023-03-03T07:22:46;99760.91;;;21.05;35.96
60646;BME280;46462;32.608;-117.032;2023-03-03T07:25:27;99761.87;;;20.89;36.28
60646;BME280;46462;32.608;-117.032;2023-03-03T07:27:47;99760.87;;;20.96;36.17
60646;BME280;46462;32.608;-117.032;2023-03-03T07:30:25;99761.27;;;20.89;36.22
60646;BME280;46462;32.608;-117.032;2023-03-03T07:32:48;99761.21;;;20.98;36.01
60646;BME280;46462;32.608;-117.032;2023-03-03T07:35:34;99758.13;;;20.92;36.08
60646;BME280;46462;32.608;-117.032;2023-03-03T07:37:50;99755.22;;;20.86;36.16
60646;BME280;46462;32.608;-117.032;2023-03-03T07:40:30;99749.57;;;20.96;36.01
60646;BME280;46462;32.608;-117.032;2023-03-03T07:42:52;99746.00;;;20.91;36.00
60646;BME280;46462;32.608;-117.032;2023-03-03T07:45:26;99746.86;;;20.91;36.00
60646;BME280;46462;32.608;-117.032;2023-03-03T07:47:58;99751.99;;;20.82;36.09
60646;BME280;46462;32.608;-117.032;2023-03-03T07:50:24;99754.01;;;20.83;36.07
60646;BME280;46462;32.608;-117.032;2023-03-03T07:52:57;99749.93;;;20.87;35.90
60646;BME280;46462;32.608;-117.032;2023-03-03T07:55:31;99754.28;;;20.72;36.27
60646;BME280;46462;32.608;-117.032;2023-03-03T07:58:05;99751.97;;;20.72;36.24
60646;BME280;46462;32.608;-117.032;2023-03-03T08:03:01;99750.27;;;20.74;36.28
60646;BME280;46462;32.608;-117.032;2023-03-03T08:05:32;99751.22;;;20.71;35.98
60646;BME280;46462;32.608;-117.032;2023-03-03T08:08:14;99757.19;;;20.76;35.83
60646;BME280;46462;32.608;-117.032;2023-03-03T08:10:36;99763.21;;;20.56;36.50
60646;BME280;46462;32.608;-117.032;2023-03-03T08:13:09;99768.32;;;20.52;36.46
60646;BME280;46462;32.608;-117.032;2023-03-03T08:15:36;99767.93;;;20.56;36.47
60646;BME280;46462;32.608;-117.032;2023-03-03T08:18:17;99771.06;;;20.58;36.40
60646;BME280;46462;32.608;-117.032;2023-03-03T08:20:42;99775.61;;;20.45;36.55
60646;BME280;46462;32.608;-117.032;2023-03-03T08:23:05;99776.28;;;20.47;36.45
60646;BME280;46462;32.608;-117.032;2023-03-03T08:25:35;99778.22;;;20.53;36.47
60646;BME280;46462;32.608;-117.032;2023-03-03T08:28:05;99774.79;;;20.52;36.16
60646;BME280;46462;32.608;-117.032;2023-03-03T08:30:35;99774.16;;;20.56;35.97
60646;BME280;46462;32.608;-117.032;2023-03-03T08:33:06;99772.10;;;20.55;35.98
60646;BME280;46462;32.608;-117.032;2023-03-03T08:35:37;99773.80;;;20.51;36.02
60646;BME280;46462;32.608;-117.032;2023-03-03T08:38:08;99782.01;;;20.49;36.11
60646;BME280;46462;32.608;-117.032;2023-03-03T08:40:38;99782.58;;;20.42;36.30
60646;BME280;46462;32.608;-117.032;2023-03-03T08:43:10;99781.65;;;20.40;36.25
60646;BME280;46462;32.608;-117.032;2023-03-03T08:45:38;99782.73;;;20.48;36.18
60646;BME280;46462;32.608;-117.032;2023-03-03T08:48:09;99775.95;;;20.60;35.85
60646;BME280;46462;32.608;-117.032;2023-03-03T08:50:40;99774.53;;;20.48;35.91
60646;BME280;46462;32.608;-117.032;2023-03-03T08:53:09;99771.23;;;20.43;35.94
60646;BME280;46462;32.608;-117.032;2023-03-03T08:55:39;99771.40;;;20.37;36.20
60646;BME280;46462;32.608;-117.032;2023-03-03T08:58:09;99767.33;;;20.25;36.17
60646;BME280;46462;32.608;-117.032;2023-03-03T09:00:39;99759.90;;;20.26;36.53
60646;BME280;46462;32.608;-117.032;2023-03-03T09:03:09;99754.74;;;20.22;36.13
60646;BME280;46462;32.608;-117.032;2023-03-03T09:05:39;99758.32;;;20.09;36.70
60646;BME280;46462;32.608;-117.032;2023-03-03T09:08:09;99755.14;;;20.03;36.78
60646;BME280;46462;32.608;-117.032;2023-03-03T09:10:39;99751.70;;;20.03;36.57
60646;BME280;46462;32.608;-117.032;2023-03-03T09:13:14;99747.06;;;20.04;36.44
60646;BME280;46462;32.608;-117.032;2023-03-03T09:15:39;99737.57;;;19.99;36.84
60646;BME280;46462;32.608;-117.032;2023-03-03T09:18:14;99725.07;;;20.11;36.28
60646;BME280;46462;32.608;-117.032;2023-03-03T09:20:41;99714.79;;;20.09;36.38
60646;BME280;46462;32.608;-117.032;2023-03-03T09:25:41;99698.84;;;20.14;36.37
60646;BME280;46462;32.608;-117.032;2023-03-03T09:28:20;99699.62;;;20.04;36.65
60646;BME280;46462;32.608;-117.032;2023-03-03T09:30:45;99690.16;;;20.00;36.42
60646;BME280;46462;32.608;-117.032;2023-03-03T09:33:22;99681.66;;;19.90;36.69
60646;BME280;46462;32.608;-117.032;2023-03-03T09:35:44;99673.78;;;19.92;36.55
60646;BME280;46462;32.608;-117.032;2023-03-03T09:38:25;99672.40;;;19.88;36.59
60646;BME280;46462;32.608;-117.032;2023-03-03T09:40:54;99671.75;;;19.88;36.61
60646;BME280;46462;32.608;-117.032;2023-03-03T09:43:19;99667.74;;;19.83;36.64
60646;BME280;46462;32.608;-117.032;2023-03-03T09:45:51;99657.15;;;19.92;36.48
60646;BME280;46462;32.608;-117.032;2023-03-03T09:48:26;99660.69;;;19.78;36.69
60646;BME280;46462;32.608;-117.032;2023-03-03T09:50:51;99663.84;;;19.83;36.58
60646;BME280;46462;32.608;-117.032;2023-03-03T09:53:23;99658.78;;;19.71;36.80
60646;BME280;46462;32.608;-117.032;2023-03-03T09:55:49;99642.65;;;19.60;36.89
60646;BME280;46462;32.608;-117.032;2023-03-03T09:58:28;99642.35;;;19.65;36.73
60646;BME280;46462;32.608;-117.032;2023-03-03T10:00:53;99649.43;;;19.66;36.69
60646;BME280;46462;32.608;-117.032;2023-03-03T10:05:50;99650.82;;;19.68;36.52
60646;BME280;46462;32.608;-117.032;2023-03-03T10:08:26;99641.66;;;19.79;36.26
60646;BME280;46462;32.608;-117.032;2023-03-03T10:10:53;99631.85;;;19.62;36.81
60646;BME280;46462;32.608;-117.032;2023-03-03T10:13:22;99626.69;;;19.61;36.62
60646;BME280;46462;32.608;-117.032;2023-03-03T10:15:53;99626.47;;;19.64;36.79
60646;BME280;46462;32.608;-117.032;2023-03-03T10:18:22;99618.27;;;19.72;36.36
60646;BME280;46462;32.608;-117.032;2023-03-03T10:20:52;99617.24;;;19.55;36.67
60646;BME280;46462;32.608;-117.032;2023-03-03T10:23:20;99614.79;;;19.56;36.57
60646;BME280;46462;32.608;-117.032;2023-03-03T10:25:54;99610.75;;;19.42;37.00
60646;BME280;46462;32.608;-117.032;2023-03-03T10:28:24;99607.77;;;19.47;36.64
60646;BME280;46462;32.608;-117.032;2023-03-03T10:30:49;99609.43;;;19.47;36.93
60646;BME280;46462;32.608;-117.032;2023-03-03T10:33:20;99608.66;;;19.39;37.04
60646;BME280;46462;32.608;-117.032;2023-03-03T10:35:56;99606.25;;;19.54;36.59
60646;BME280;46462;32.608;-117.032;2023-03-03T10:38:24;99601.75;;;19.51;36.59
60646;BME280;46462;32.608;-117.032;2023-03-03T10:40:51;99595.70;;;19.44;36.87
60646;BME280;46462;32.608;-117.032;2023-03-03T10:43:25;99583.40;;;19.51;36.51
60646;BME280;46462;32.608;-117.032;2023-03-03T10:45:57;99566.11;;;19.43;36.61
60646;BME280;46462;32.608;-117.032;2023-03-03T10:48:25;99561.10;;;19.37;36.94
60646;BME280;46462;32.608;-117.032;2023-03-03T10:50:52;99559.20;;;19.29;37.19
60646;BME280;46462;32.608;-117.032;2023-03-03T10:53:21;99562.30;;;19.24;36.96
60646;BME280;46462;32.608;-117.032;2023-03-03T10:55:50;99560.59;;;19.39;36.66
60646;BME280;46462;32.608;-117.032;2023-03-03T10:58:27;99558.90;;;19.35;36.74
60646;BME280;46462;32.608;-117.032;2023-03-03T11:00:48;99559.31;;;19.14;37.34
60646;BME280;46462;32.608;-117.032;2023-03-03T11:05:49;99563.79;;;19.00;37.32
60646;BME280;46462;32.608;-117.032;2023-03-03T11:08:18;99555.40;;;19.00;37.53
60646;BME280;46462;32.608;-117.032;2023-03-03T11:10:53;99558.80;;;18.95;37.50
60646;BME280;46462;32.608;-117.032;2023-03-03T11:13:21;99556.48;;;19.04;37.14
60646;BME280;46462;32.608;-117.032;2023-03-03T11:15:57;99550.60;;;19.02;37.38
60646;BME280;46462;32.608;-117.032;2023-03-03T11:18:23;99547.84;;;19.01;37.11
60646;BME280;46462;32.608;-117.032;2023-03-03T11:20:53;99544.31;;;19.00;37.05
60646;BME280;46462;32.608;-117.032;2023-03-03T11:23:29;99538.24;;;18.93;37.40
60646;BME280;46462;32.608;-117.032;2023-03-03T11:25:51;99537.15;;;18.85;37.45
60646;BME280;46462;32.608;-117.032;2023-03-03T11:28:22;99538.84;;;18.92;37.35
60646;BME280;46462;32.608;-117.032;2023-03-03T11:30:55;99539.87;;;18.77;37.15
60646;BME280;46462;32.608;-117.032;2023-03-03T11:33:19;99539.94;;;18.85;37.00
60646;BME280;46462;32.608;-117.032;2023-03-03T11:35:50;99537.27;;;18.64;37.35
60646;BME280;46462;32.608;-117.032;2023-03-03T11:38:25;99534.76;;;18.71;37.51
60646;BME280;46462;32.608;-117.032;2023-03-03T11:40:49;99535.16;;;18.81;37.28
60646;BME280;46462;32.608;-117.032;2023-03-03T11:43:21;99533.11;;;18.85;37.23
60646;BME280;46462;32.608;-117.032;2023-03-03T11:45:47;99533.06;;;18.85;37.42
60646;BME280;46462;32.608;-117.032;2023-03-03T11:48:19;99534.50;;;18.77;37.21
60646;BME280;46462;32.608;-117.032;2023-03-03T11:50:54;99534.19;;;18.67;37.63
60646;BME280;46462;32.608;-117.032;2023-03-03T11:53:30;99534.43;;;18.80;36.92
60646;BME280;46462;32.608;-117.032;2023-03-03T11:55:51;99531.76;;;18.76;37.12
60646;BME280;46462;32.608;-117.032;2023-03-03T11:58:20;99526.67;;;18.79;37.36
60646;BME280;46462;32.608;-117.032;2023-03-03T12:00:50;99526.34;;;18.63;37.41
60646;BME280;46462;32.608;-117.032;2023-03-03T12:03:24;99518.60;;;18.62;37.27
60646;BME280;46462;32.608;-117.032;2023-03-03T12:05:54;99518.28;;;18.59;37.60
60646;BME280;46462;32.608;-117.032;2023-03-03T12:08:29;99520.08;;;18.59;37.74
60646;BME280;46462;32.608;-117.032;2023-03-03T12:10:50;99517.42;;;18.56;37.42
60646;BME280;46462;32.608;-117.032;2023-03-03T12:13:22;99519.34;;;18.60;37.36
60646;BME280;46462;32.608;-117.032;2023-03-03T12:15:50;99522.35;;;18.54;37.59
60646;BME280;46462;32.608;-117.032;2023-03-03T12:18:26;99522.85;;;18.66;37.22
60646;BME280;46462;32.608;-117.032;2023-03-03T12:20:51;99517.65;;;18.63;37.65
60646;BME280;46462;32.608;-117.032;2023-03-03T12:23:34;99517.54;;;18.59;37.65
60646;BME280;46462;32.608;-117.032;2023-03-03T12:25:49;99516.35;;;18.68;37.27
60646;BME280;46462;32.608;-117.032;2023-03-03T12:28:18;99515.73;;;18.53;37.11
60646;BME280;46462;32.608;-117.032;2023-03-03T12:31:01;99518.81;;;18.51;37.56
60646;BME280;46462;32.608;-117.032;2023-03-03T12:33:22;99522.74;;;18.50;37.52
60646;BME280;46462;32.608;-117.032;2023-03-03T12:35:53;99522.25;;;18.41;37.79
60646;BME280;46462;32.608;-117.032;2023-03-03T12:38:23;99520.83;;;18.28;37.99
60646;BME280;46462;32.608;-117.032;2023-03-03T12:40:55;99522.74;;;18.36;37.57
60646;BME280;46462;32.608;-117.032;2023-03-03T12:43:25;99531.09;;;18.45;37.25
60646;BME280;46462;32.608;-117.032;2023-03-03T12:45:55;99536.06;;;18.37;37.44
60646;BME280;46462;32.608;-117.032;2023-03-03T12:48:20;99538.14;;;18.43;37.12
60646;BME280;46462;32.608;-117.032;2023-03-03T12:50:54;99536.44;;;18.34;37.51
60646;BME280;46462;32.608;-117.032;2023-03-03T12:53:29;99533.95;;;18.38;37.27
60646;BME280;46462;32.608;-117.032;2023-03-03T12:55:52;99530.80;;;18.40;36.95
60646;BME280;46462;32.608;-117.032;2023-03-03T12:58:29;99536.37;;;18.29;37.46